sensor_id;sensor_type;location;lat;lon;timestamp;pressure;altitude;pressure_sealevel;temperature;humidity
68456;BME280;55437;55.046;38.838;2022-08-02T00:02:04;100076.59;;;15.71;67.02
68456;BME280;55437;55.046;38.838;2022-08-02T00:04:32;100077.75;;;15.65;67.26
68456;BME280;55437;55.046;38.838;2022-08-02T00:06:58;100080.28;;;15.67;67.28
68456;BME280;55437;55.046;38.838;2022-08-02T00:09:23;100080.34;;;15.65;67.30
68456;BME280;55437;55.046;38.838;2022-08-02T00:11:49;100078.69;;;15.64;67.26
68456;BME280;55437;55.046;38.838;2022-08-02T00:14:15;100082.19;;;15.63;67.13
68456;BME280;55437;55.046;38.838;2022-08-02T00:16:41;100086.50;;;15.63;67.20
68456;BME280;55437;55.046;38.838;2022-08-02T00:19:06;100085.06;;;15.57;67.25
68456;BME280;55437;55.046;38.838;2022-08-02T00:21:32;100087.78;;;15.54;67.37
68456;BME280;55437;55.046;38.838;2022-08-02T00:23:58;100088.81;;;15.50;67.53
68456;BME280;55437;55.046;38.838;2022-08-02T00:26:24;100089.72;;;15.49;67.67
68456;BME280;55437;55.046;38.838;2022-08-02T00:28:50;100089.78;;;15.47;67.65
68456;BME280;55437;55.046;38.838;2022-08-02T00:31:16;100083.13;;;15.43;67.86
68456;BME280;55437;55.046;38.838;2022-08-02T00:33:42;100081.66;;;15.38;67.94
68456;BME280;55437;55.046;38.838;2022-08-02T00:36:07;100078.34;;;15.34;68.11
68456;BME280;55437;55.046;38.838;2022-08-02T00:38:36;100081.88;;;15.33;68.33
68456;BME280;55437;55.046;38.838;2022-08-02T00:41:02;100082.94;;;15.29;68.17
68456;BME280;55437;55.046;38.838;2022-08-02T00:43:27;100079.72;;;15.24;68.50
68456;BME280;55437;55.046;38.838;2022-08-02T00:45:53;100080.84;;;15.19;68.78
68456;BME280;55437;55.046;38.838;2022-08-02T00:48:19;100077.50;;;15.17;68.85
68456;BME280;55437;55.046;38.838;2022-08-02T00:50:45;100087.84;;;15.17;68.82
68456;BME280;55437;55.046;38.838;2022-08-02T00:53:12;100085.38;;;15.13;68.98
68456;BME280;55437;55.046;38.838;2022-08-02T00:55:37;100091.53;;;15.11;68.91
68456;BME280;55437;55.046;38.838;2022-08-02T00:58:04;100087.38;;;15.08;69.01
68456;BME280;55437;55.046;38.838;2022-08-02T01:00:30;100083.09;;;15.07;69.15
68456;BME280;55437;55.046;38.838;2022-08-02T01:02:56;100084.97;;;15.04;69.20
68456;BME280;55437;55.046;38.838;2022-08-02T01:05:40;100086.66;;;15.05;69.11
68456;BME280;55437;55.046;38.838;2022-08-02T01:08:06;100080.66;;;15.04;69.49
68456;BME280;55437;55.046;38.838;2022-08-02T01:10:32;100089.31;;;15.03;69.47
68456;BME280;55437;55.046;38.838;2022-08-02T01:13:16;100084.28;;;15.00;69.59
68456;BME280;55437;55.046;38.838;2022-08-02T01:15:46;100086.19;;;14.97;69.93
68456;BME280;55437;55.046;38.838;2022-08-02T01:18:30;100088.78;;;14.97;69.97
68456;BME280;55437;55.046;38.838;2022-08-02T01:21:09;100081.00;;;14.97;69.89
68456;BME280;55437;55.046;38.838;2022-08-02T01:23:54;100087.00;;;14.97;69.78
68456;BME280;55437;55.046;38.838;2022-08-02T01:26:48;100087.94;;;14.96;69.86
68456;BME280;55437;55.046;38.838;2022-08-02T01:29:27;100082.91;;;14.93;70.15
68456;BME280;55437;55.046;38.838;2022-08-02T01:32:08;100086.38;;;14.92;70.09
68456;BME280;55437;55.046;38.838;2022-08-02T01:34:59;100082.19;;;14.90;69.99
68456;BME280;55437;55.046;38.838;2022-08-02T01:37:36;100082.31;;;14.87;70.27
68456;BME280;55437;55.046;38.838;2022-08-02T01:40:11;100084.06;;;14.86;70.21
68456;BME280;55437;55.046;38.838;2022-08-02T01:42:43;100095.34;;;14.85;70.34
68456;BME280;55437;55.046;38.838;2022-08-02T01:45:11;100096.16;;;14.86;70.34
68456;BME280;55437;55.046;38.838;2022-08-02T01:47:39;100095.94;;;14.90;70.34
68456;BME280;55437;55.046;38.838;2022-08-02T01:50:07;100093.09;;;14.96;70.31
68456;BME280;55437;55.046;38.838;2022-08-02T01:52:42;100095.13;;;15.08;70.08
68456;BME280;55437;55.046;38.838;2022-08-02T01:55:17;100097.69;;;15.27;69.62
68456;BME280;55437;55.046;38.838;2022-08-02T01:57:48;100092.00;;;15.38;69.28
68456;BME280;55437;55.046;38.838;2022-08-02T02:00:15;100094.84;;;15.69;68.45
68456;BME280;55437;55.046;38.838;2022-08-02T02:02:42;100097.44;;;16.04;67.66
68456;BME280;55437;55.046;38.838;2022-08-02T02:05:18;100089.13;;;16.30;66.98
68456;BME280;55437;55.046;38.838;2022-08-02T02:07:45;100099.69;;;16.60;66.66
68456;BME280;55437;55.046;38.838;2022-08-02T02:10:16;100103.03;;;16.95;65.33
68456;BME280;55437;55.046;38.838;2022-08-02T02:12:48;100111.00;;;17.23;64.58
68456;BME280;55437;55.046;38.838;2022-08-02T02:15:40;100085.66;;;17.58;63.21
68456;BME280;55437;55.046;38.838;2022-08-02T02:18:06;100094.91;;;17.94;62.49
68456;BME280;55437;55.046;38.838;2022-08-02T02:20:33;100094.09;;;18.36;61.14
68456;BME280;55437;55.046;38.838;2022-08-02T02:22:59;100100.72;;;18.84;60.05
68456;BME280;55437;55.046;38.838;2022-08-02T02:25:25;100103.34;;;19.25;58.95
68456;BME280;55437;55.046;38.838;2022-08-02T02:28:03;100099.94;;;19.78;57.62
68456;BME280;55437;55.046;38.838;2022-08-02T02:30:30;100104.47;;;20.27;56.27
68456;BME280;55437;55.046;38.838;2022-08-02T02:32:59;100101.84;;;20.65;55.23
68456;BME280;55437;55.046;38.838;2022-08-02T02:35:45;100106.53;;;20.85;54.27
68456;BME280;55437;55.046;38.838;2022-08-02T02:38:13;100100.72;;;20.69;54.61
68456;BME280;55437;55.046;38.838;2022-08-02T02:40:41;100104.44;;;20.91;53.90
68456;BME280;55437;55.046;38.838;2022-08-02T02:43:09;100100.75;;;21.42;52.84
68456;BME280;55437;55.046;38.838;2022-08-02T02:45:38;100104.34;;;21.52;52.31
68456;BME280;55437;55.046;38.838;2022-08-02T02:48:06;100103.81;;;21.95;51.22
68456;BME280;55437;55.046;38.838;2022-08-02T02:50:34;100109.16;;;22.51;49.88
68456;BME280;55437;55.046;38.838;2022-08-02T02:53:01;100104.66;;;22.86;48.92
68456;BME280;55437;55.046;38.838;2022-08-02T02:55:27;100110.09;;;23.17;48.08
68456;BME280;55437;55.046;38.838;2022-08-02T02:57:54;100106.56;;;23.39;47.13
68456;BME280;55437;55.046;38.838;2022-08-02T03:00:20;100112.91;;;23.68;46.75
68456;BME280;55437;55.046;38.838;2022-08-02T03:03:06;100107.84;;;23.87;46.12
68456;BME280;55437;55.046;38.838;2022-08-02T03:05:34;100103.47;;;24.18;45.65
68456;BME280;55437;55.046;38.838;2022-08-02T03:07:59;100107.63;;;24.41;45.15
68456;BME280;55437;55.046;38.838;2022-08-02T03:10:26;100117.91;;;24.75;44.42
68456;BME280;55437;55.046;38.838;2022-08-02T03:12:52;100111.75;;;24.95;43.80
68456;BME280;55437;55.046;38.838;2022-08-02T03:15:20;100106.59;;;24.84;43.69
68456;BME280;55437;55.046;38.838;2022-08-02T03:17:46;100109.03;;;24.04;44.94
68456;BME280;55437;55.046;38.838;2022-08-02T03:20:15;100105.78;;;23.27;46.48
68456;BME280;55437;55.046;38.838;2022-08-02T03:22:42;100104.97;;;22.48;47.76
68456;BME280;55437;55.046;38.838;2022-08-02T03:25:09;100113.75;;;21.90;49.12
68456;BME280;55437;55.046;38.838;2022-08-02T03:27:37;100103.69;;;21.38;50.42
68456;BME280;55437;55.046;38.838;2022-08-02T03:30:04;100107.34;;;20.99;51.64
68456;BME280;55437;55.046;38.838;2022-08-02T03:32:34;100109.91;;;20.62;52.31
68456;BME280;55437;55.046;38.838;2022-08-02T03:35:01;100111.38;;;20.54;52.87
68456;BME280;55437;55.046;38.838;2022-08-02T03:37:29;100110.00;;;20.73;52.83
68456;BME280;55437;55.046;38.838;2022-08-02T03:39:55;100112.59;;;20.86;52.74
68456;BME280;55437;55.046;38.838;2022-08-02T03:42:22;100105.56;;;20.99;52.54
68456;BME280;55437;55.046;38.838;2022-08-02T03:44:50;100110.06;;;20.97;52.64
68456;BME280;55437;55.046;38.838;2022-08-02T03:47:17;100110.34;;;21.05;52.46
68456;BME280;55437;55.046;38.838;2022-08-02T03:49:44;100108.25;;;21.10;52.34
68456;BME280;55437;55.046;38.838;2022-08-02T03:52:31;100110.00;;;20.86;53.16
68456;BME280;55437;55.046;38.838;2022-08-02T03:54:57;100117.00;;;20.73;53.15
68456;BME280;55437;55.046;38.838;2022-08-02T03:57:23;100120.03;;;20.54;53.40
68456;BME280;55437;55.046;38.838;2022-08-02T03:59:49;100113.16;;;20.40;54.02
68456;BME280;55437;55.046;38.838;2022-08-02T04:02:15;100114.63;;;20.44;54.16
68456;BME280;55437;55.046;38.838;2022-08-02T04:04:41;100106.66;;;20.21;54.54
68456;BME280;55437;55.046;38.838;2022-08-02T04:07:06;100117.81;;;20.23;54.69
68456;BME280;55437;55.046;38.838;2022-08-02T04:09:32;100109.56;;;20.29;54.47
68456;BME280;55437;55.046;38.838;2022-08-02T04:11:58;100111.25;;;20.42;54.55
68456;BME280;55437;55.046;38.838;2022-08-02T04:14:24;100108.88;;;20.39;54.75
68456;BME280;55437;55.046;38.838;2022-08-02T04:16:53;100104.25;;;20.30;54.99
68456;BME280;55437;55.046;38.838;2022-08-02T04:19:43;100108.16;;;20.37;55.07
68456;BME280;55437;55.046;38.838;2022-08-02T04:22:15;100107.97;;;20.40;54.89
68456;BME280;55437;55.046;38.838;2022-08-02T04:24:47;100113.97;;;20.41;55.01
68456;BME280;55437;55.046;38.838;2022-08-02T04:27:14;100110.75;;;20.37;55.32
68456;BME280;55437;55.046;38.838;2022-08-02T04:29:41;100104.06;;;20.46;55.47
68456;BME280;55437;55.046;38.838;2022-08-02T04:32:07;100107.91;;;20.53;55.44
68456;BME280;55437;55.046;38.838;2022-08-02T04:34:33;100104.16;;;20.57;54.89
68456;BME280;55437;55.046;38.838;2022-08-02T04:36:59;100109.91;;;20.62;54.83
68456;BME280;55437;55.046;38.838;2022-08-02T04:39:26;100104.47;;;20.65;54.64
68456;BME280;55437;55.046;38.838;2022-08-02T04:41:52;100106.34;;;20.76;54.53
68456;BME280;55437;55.046;38.838;2022-08-02T04:44:18;100107.13;;;20.89;54.52
68456;BME280;55437;55.046;38.838;2022-08-02T04:46:44;100102.03;;;21.00;54.08
68456;BME280;55437;55.046;38.838;2022-08-02T04:49:10;100106.19;;;21.39;53.40
68456;BME280;55437;55.046;38.838;2022-08-02T04:51:40;100107.22;;;21.84;52.38
68456;BME280;55437;55.046;38.838;2022-08-02T04:54:07;100111.75;;;22.51;51.11
68456;BME280;55437;55.046;38.838;2022-08-02T04:56:39;100108.31;;;22.95;49.60
68456;BME280;55437;55.046;38.838;2022-08-02T04:59:10;100121.66;;;23.57;48.55
68456;BME280;55437;55.046;38.838;2022-08-02T05:01:37;100115.41;;;24.01;47.73
68456;BME280;55437;55.046;38.838;2022-08-02T05:04:04;100104.44;;;24.17;46.80
68456;BME280;55437;55.046;38.838;2022-08-02T05:06:31;100108.72;;;24.18;46.57
68456;BME280;55437;55.046;38.838;2022-08-02T05:08:57;100103.34;;;24.20;46.69
68456;BME280;55437;55.046;38.838;2022-08-02T05:11:23;100102.91;;;24.15;46.87
68456;BME280;55437;55.046;38.838;2022-08-02T05:13:50;100107.59;;;24.11;46.75
68456;BME280;55437;55.046;38.838;2022-08-02T05:16:16;100104.97;;;24.11;46.65
68456;BME280;55437;55.046;38.838;2022-08-02T05:18:42;100100.41;;;24.13;46.64
68456;BME280;55437;55.046;38.838;2022-08-02T05:21:08;100098.06;;;24.10;45.87
68456;BME280;55437;55.046;38.838;2022-08-02T05:23:34;100091.00;;;24.11;45.87
68456;BME280;55437;55.046;38.838;2022-08-02T05:25:59;100091.25;;;24.28;45.21
68456;BME280;55437;55.046;38.838;2022-08-02T05:28:25;100094.16;;;24.56;45.20
68456;BME280;55437;55.046;38.838;2022-08-02T05:30:51;100099.03;;;25.00;44.18
68456;BME280;55437;55.046;38.838;2022-08-02T05:33:16;100097.44;;;25.19;43.88
68456;BME280;55437;55.046;38.838;2022-08-02T05:35:42;100095.25;;;25.24;43.67
68456;BME280;55437;55.046;38.838;2022-08-02T05:38:08;100090.38;;;25.29;43.56
68456;BME280;55437;55.046;38.838;2022-08-02T05:40:34;100089.69;;;25.27;43.43
68456;BME280;55437;55.046;38.838;2022-08-02T05:43:00;100089.28;;;25.51;42.79
68456;BME280;55437;55.046;38.838;2022-08-02T05:45:26;100091.25;;;25.68;42.71
68456;BME280;55437;55.046;38.838;2022-08-02T05:47:52;100094.94;;;25.27;42.55
68456;BME280;55437;55.046;38.838;2022-08-02T05:50:18;100085.00;;;25.21;42.66
68456;BME280;55437;55.046;38.838;2022-08-02T05:58:15;100085.66;;;26.19;41.03
68456;BME280;55437;55.046;38.838;2022-08-02T06:00:40;100077.72;;;27.03;39.50
68456;BME280;55437;55.046;38.838;2022-08-02T06:08:14;100079.59;;;28.59;36.66
68456;BME280;55437;55.046;38.838;2022-08-02T06:10:42;100078.09;;;28.90;35.29
68456;BME280;55437;55.046;38.838;2022-08-02T06:13:12;100086.97;;;29.48;34.18
68456;BME280;55437;55.046;38.838;2022-08-02T06:15:41;100087.16;;;29.54;34.62
68456;BME280;55437;55.046;38.838;2022-08-02T06:18:07;100076.75;;;29.77;34.35
68456;BME280;55437;55.046;38.838;2022-08-02T06:20:34;100080.22;;;30.02;34.03
68456;BME280;55437;55.046;38.838;2022-08-02T06:23:06;100073.63;;;30.45;33.29
68456;BME280;55437;55.046;38.838;2022-08-02T06:25:34;100083.75;;;30.50;32.68
68456;BME280;55437;55.046;38.838;2022-08-02T06:28:03;100078.56;;;29.93;32.60
68456;BME280;55437;55.046;38.838;2022-08-02T06:30:30;100070.88;;;30.38;32.12
68456;BME280;55437;55.046;38.838;2022-08-02T06:32:57;100072.25;;;30.73;31.94
68456;BME280;55437;55.046;38.838;2022-08-02T06:35:33;100071.91;;;30.68;31.25
68456;BME280;55437;55.046;38.838;2022-08-02T06:38:01;100075.06;;;30.72;31.35
68456;BME280;55437;55.046;38.838;2022-08-02T06:40:47;100072.56;;;30.78;30.67
68456;BME280;55437;55.046;38.838;2022-08-02T06:46:06;100068.28;;;31.31;30.30
68456;BME280;55437;55.046;38.838;2022-08-02T06:48:32;100076.88;;;30.71;31.06
68456;BME280;55437;55.046;38.838;2022-08-02T06:51:03;100068.47;;;30.99;30.42
68456;BME280;55437;55.046;38.838;2022-08-02T06:53:29;100060.63;;;31.36;29.92
68456;BME280;55437;55.046;38.838;2022-08-02T06:55:55;100055.28;;;31.82;29.67
68456;BME280;55437;55.046;38.838;2022-08-02T06:58:21;100053.34;;;31.91;28.49
68456;BME280;55437;55.046;38.838;2022-08-02T07:00:47;100062.00;;;32.07;28.46
68456;BME280;55437;55.046;38.838;2022-08-02T07:03:13;100057.28;;;31.80;28.64
68456;BME280;55437;55.046;38.838;2022-08-02T07:05:40;100052.81;;;31.95;28.47
68456;BME280;55437;55.046;38.838;2022-08-02T07:08:06;100048.66;;;32.30;28.23
68456;BME280;55437;55.046;38.838;2022-08-02T07:10:32;100055.13;;;32.57;27.96
68456;BME280;55437;55.046;38.838;2022-08-02T07:12:59;100062.50;;;31.88;28.56
68456;BME280;55437;55.046;38.838;2022-08-02T07:15:25;100051.53;;;31.91;28.63
68456;BME280;55437;55.046;38.838;2022-08-02T07:17:51;100042.97;;;32.18;28.06
68456;BME280;55437;55.046;38.838;2022-08-02T07:20:17;100040.22;;;32.27;26.90
68456;BME280;55437;55.046;38.838;2022-08-02T07:22:43;100048.78;;;32.14;26.94
68456;BME280;55437;55.046;38.838;2022-08-02T07:25:09;100044.31;;;32.00;27.14
68456;BME280;55437;55.046;38.838;2022-08-02T07:27:36;100050.00;;;32.11;26.89
68456;BME280;55437;55.046;38.838;2022-08-02T07:30:03;100042.41;;;32.38;26.66
68456;BME280;55437;55.046;38.838;2022-08-02T07:32:30;100052.00;;;32.68;26.54
68456;BME280;55437;55.046;38.838;2022-08-02T07:34:58;100047.66;;;32.97;25.82
68456;BME280;55437;55.046;38.838;2022-08-02T07:37:27;100050.19;;;33.05;26.46
68456;BME280;55437;55.046;38.838;2022-08-02T07:39:53;100047.75;;;32.23;27.35
68456;BME280;55437;55.046;38.838;2022-08-02T07:42:18;100044.09;;;31.72;28.10
68456;BME280;55437;55.046;38.838;2022-08-02T07:44:44;100058.53;;;31.46;27.64
68456;BME280;55437;55.046;38.838;2022-08-02T07:47:10;100052.94;;;31.41;27.71
68456;BME280;55437;55.046;38.838;2022-08-02T07:49:36;100049.91;;;30.99;28.46
68456;BME280;55437;55.046;38.838;2022-08-02T07:52:02;100042.28;;;30.96;28.17
68456;BME280;55437;55.046;38.838;2022-08-02T07:54:27;100049.75;;;31.46;28.39
68456;BME280;55437;55.046;38.838;2022-08-02T07:56:53;100051.41;;;32.22;28.24
68456;BME280;55437;55.046;38.838;2022-08-02T07:59:19;100035.91;;;32.26;27.23
68456;BME280;55437;55.046;38.838;2022-08-02T08:01:46;100040.63;;;32.74;26.99
68456;BME280;55437;55.046;38.838;2022-08-02T08:04:16;100047.44;;;32.47;26.06
68456;BME280;55437;55.046;38.838;2022-08-02T08:06:42;100057.97;;;32.55;24.88
68456;BME280;55437;55.046;38.838;2022-08-02T08:09:09;100049.28;;;32.47;24.75
68456;BME280;55437;55.046;38.838;2022-08-02T08:11:36;100042.47;;;32.59;24.40
68456;BME280;55437;55.046;38.838;2022-08-02T08:14:02;100046.81;;;32.45;24.98
68456;BME280;55437;55.046;38.838;2022-08-02T08:16:47;100043.78;;;31.67;25.77
68456;BME280;55437;55.046;38.838;2022-08-02T08:19:13;100039.66;;;31.64;26.00
68456;BME280;55437;55.046;38.838;2022-08-02T08:21:38;100029.91;;;31.79;25.54
68456;BME280;55437;55.046;38.838;2022-08-02T08:24:04;100031.47;;;32.03;24.93
68456;BME280;55437;55.046;38.838;2022-08-02T08:26:30;100036.88;;;31.95;24.41
68456;BME280;55437;55.046;38.838;2022-08-02T08:28:56;100028.56;;;32.28;23.87
68456;BME280;55437;55.046;38.838;2022-08-02T08:31:22;100030.38;;;32.12;24.39
68456;BME280;55437;55.046;38.838;2022-08-02T08:33:48;100033.41;;;32.39;24.25
68456;BME280;55437;55.046;38.838;2022-08-02T08:36:13;100027.63;;;32.50;23.89
68456;BME280;55437;55.046;38.838;2022-08-02T08:38:41;100023.97;;;32.51;24.52
68456;BME280;55437;55.046;38.838;2022-08-02T08:41:06;100012.97;;;31.95;24.13
68456;BME280;55437;55.046;38.838;2022-08-02T08:43:32;100018.44;;;31.79;24.11
68456;BME280;55437;55.046;38.838;2022-08-02T08:45:58;100016.41;;;31.66;24.39
68456;BME280;55437;55.046;38.838;2022-08-02T08:48:25;100014.34;;;30.46;25.44
68456;BME280;55437;55.046;38.838;2022-08-02T08:50:55;100018.16;;;30.04;25.94
68456;BME280;55437;55.046;38.838;2022-08-02T08:53:23;100015.50;;;29.88;26.37
68456;BME280;55437;55.046;38.838;2022-08-02T08:55:52;100010.75;;;29.51;26.52
68456;BME280;55437;55.046;38.838;2022-08-02T08:58:18;100008.94;;;28.61;27.42
68456;BME280;55437;55.046;38.838;2022-08-02T09:00:45;99996.03;;;28.50;28.48
68456;BME280;55437;55.046;38.838;2022-08-02T09:03:30;100007.66;;;28.31;29.49
68456;BME280;55437;55.046;38.838;2022-08-02T09:05:56;100002.00;;;28.26;28.92
68456;BME280;55437;55.046;38.838;2022-08-02T09:08:24;99999.13;;;28.37;28.94
68456;BME280;55437;55.046;38.838;2022-08-02T09:10:49;99998.09;;;28.30;28.78
68456;BME280;55437;55.046;38.838;2022-08-02T09:13:17;99985.03;;;28.28;29.56
68456;BME280;55437;55.046;38.838;2022-08-02T09:15:58;99991.06;;;28.47;29.99
68456;BME280;55437;55.046;38.838;2022-08-02T09:18:44;99994.84;;;28.44;29.89
68456;BME280;55437;55.046;38.838;2022-08-02T09:21:11;99990.47;;;28.27;30.05
68456;BME280;55437;55.046;38.838;2022-08-02T09:23:43;99989.97;;;28.23;30.67
68456;BME280;55437;55.046;38.838;2022-08-02T09:26:10;99997.94;;;28.06;30.24
68456;BME280;55437;55.046;38.838;2022-08-02T09:28:39;99988.56;;;28.11;30.79
68456;BME280;55437;55.046;38.838;2022-08-02T09:31:13;99979.72;;;27.94;30.28
68456;BME280;55437;55.046;38.838;2022-08-02T09:33:41;99980.94;;;27.74;30.28
68456;BME280;55437;55.046;38.838;2022-08-02T09:36:08;99981.38;;;27.08;31.69
68456;BME280;55437;55.046;38.838;2022-08-02T09:38:37;99975.34;;;26.98;31.84
68456;BME280;55437;55.046;38.838;2022-08-02T09:41:04;99970.53;;;27.11;31.79
68456;BME280;55437;55.046;38.838;2022-08-02T09:46:18;99952.41;;;27.52;31.59
68456;BME280;55437;55.046;38.838;2022-08-02T09:51:22;99971.38;;;27.73;31.02
68456;BME280;55437;55.046;38.838;2022-08-02T09:54:09;99963.91;;;27.69;30.85
68456;BME280;55437;55.046;38.838;2022-08-02T09:56:51;99961.94;;;27.71;31.74
68456;BME280;55437;55.046;38.838;2022-08-02T09:59:20;99956.88;;;27.77;31.50
68456;BME280;55437;55.046;38.838;2022-08-02T10:01:50;99951.38;;;27.71;31.41
68456;BME280;55437;55.046;38.838;2022-08-02T10:04:22;99964.78;;;27.34;31.89
68456;BME280;55437;55.046;38.838;2022-08-02T10:06:49;99959.00;;;26.95;32.56
68456;BME280;55437;55.046;38.838;2022-08-02T10:09:15;99958.88;;;26.69;32.54
68456;BME280;55437;55.046;38.838;2022-08-02T10:11:41;99950.00;;;26.52;32.18
68456;BME280;55437;55.046;38.838;2022-08-02T10:14:09;99955.81;;;26.73;32.45
68456;BME280;55437;55.046;38.838;2022-08-02T10:16:37;99954.00;;;26.74;32.10
68456;BME280;55437;55.046;38.838;2022-08-02T10:19:03;99949.19;;;26.87;32.56
68456;BME280;55437;55.046;38.838;2022-08-02T10:22:05;99943.72;;;26.98;31.96
68456;BME280;55437;55.046;38.838;2022-08-02T10:24:36;99940.28;;;26.98;32.95
68456;BME280;55437;55.046;38.838;2022-08-02T10:27:03;99941.16;;;27.06;32.37
68456;BME280;55437;55.046;38.838;2022-08-02T10:29:36;99941.34;;;27.05;31.79
68456;BME280;55437;55.046;38.838;2022-08-02T10:32:06;99928.66;;;27.08;32.29
68456;BME280;55437;55.046;38.838;2022-08-02T10:34:36;99929.97;;;27.04;32.05
68456;BME280;55437;55.046;38.838;2022-08-02T10:37:08;99931.38;;;27.16;32.18
68456;BME280;55437;55.046;38.838;2022-08-02T10:39:39;99936.94;;;27.13;31.87
68456;BME280;55437;55.046;38.838;2022-08-02T10:42:06;99936.03;;;27.22;32.16
68456;BME280;55437;55.046;38.838;2022-08-02T10:44:33;99940.03;;;27.27;32.25
68456;BME280;55437;55.046;38.838;2022-08-02T10:47:21;99934.59;;;27.28;32.67
68456;BME280;55437;55.046;38.838;2022-08-02T10:49:51;99937.81;;;27.40;32.41
68456;BME280;55437;55.046;38.838;2022-08-02T10:52:27;99941.59;;;27.37;31.68
68456;BME280;55437;55.046;38.838;2022-08-02T10:57:33;99930.84;;;27.13;31.61
68456;BME280;55437;55.046;38.838;2022-08-02T11:02:59;99918.97;;;27.35;31.75
68456;BME280;55437;55.046;38.838;2022-08-02T11:05:31;99926.59;;;27.38;32.31
68456;BME280;55437;55.046;38.838;2022-08-02T11:07:58;99941.34;;;27.31;32.28
68456;BME280;55437;55.046;38.838;2022-08-02T11:10:41;99924.34;;;27.25;32.00
68456;BME280;55437;55.046;38.838;2022-08-02T11:13:17;99930.75;;;27.22;32.06
68456;BME280;55437;55.046;38.838;2022-08-02T11:18:13;99920.69;;;27.00;32.81
68456;BME280;55437;55.046;38.838;2022-08-02T11:20:40;99935.16;;;27.14;32.97
68456;BME280;55437;55.046;38.838;2022-08-02T11:23:35;99923.03;;;27.29;32.18
68456;BME280;55437;55.046;38.838;2022-08-02T11:26:48;99926.28;;;27.41;32.70
68456;BME280;55437;55.046;38.838;2022-08-02T11:28:49;99924.94;;;27.37;32.96
68456;BME280;55437;55.046;38.838;2022-08-02T11:31:15;99926.84;;;27.27;33.50
68456;BME280;55437;55.046;38.838;2022-08-02T11:33:41;99930.69;;;27.14;33.65
68456;BME280;55437;55.046;38.838;2022-08-02T11:36:07;99930.47;;;27.25;33.75
68456;BME280;55437;55.046;38.838;2022-08-02T11:38:33;99926.22;;;27.33;33.33
68456;BME280;55437;55.046;38.838;2022-08-02T11:40:59;99932.63;;;27.30;33.00
68456;BME280;55437;55.046;38.838;2022-08-02T11:43:28;99940.03;;;27.27;33.15
68456;BME280;55437;55.046;38.838;2022-08-02T11:45:56;99923.72;;;27.31;32.58
68456;BME280;55437;55.046;38.838;2022-08-02T11:48:32;99939.53;;;27.31;32.66
68456;BME280;55437;55.046;38.838;2022-08-02T11:51:13;99930.06;;;27.20;33.14
68456;BME280;55437;55.046;38.838;2022-08-02T11:56:07;99933.38;;;27.22;33.53
68456;BME280;55437;55.046;38.838;2022-08-02T11:58:35;99937.06;;;27.30;33.62
68456;BME280;55437;55.046;38.838;2022-08-02T12:01:02;99925.91;;;27.36;32.66
68456;BME280;55437;55.046;38.838;2022-08-02T12:03:33;99936.66;;;27.42;32.72
68456;BME280;55437;55.046;38.838;2022-08-02T12:06:17;99932.59;;;27.48;32.52
68456;BME280;55437;55.046;38.838;2022-08-02T12:08:43;99926.03;;;27.52;32.59
68456;BME280;55437;55.046;38.838;2022-08-02T12:11:09;99930.53;;;27.59;33.19
68456;BME280;55437;55.046;38.838;2022-08-02T12:13:42;99929.03;;;27.57;33.52
68456;BME280;55437;55.046;38.838;2022-08-02T12:16:12;99931.38;;;27.60;33.36
68456;BME280;55437;55.046;38.838;2022-08-02T12:18:57;99928.47;;;27.53;33.77
68456;BME280;55437;55.046;38.838;2022-08-02T12:21:41;99930.03;;;27.56;34.05
68456;BME280;55437;55.046;38.838;2022-08-02T12:24:08;99931.22;;;27.44;34.05
68456;BME280;55437;55.046;38.838;2022-08-02T12:26:45;99920.34;;;27.39;33.80
68456;BME280;55437;55.046;38.838;2022-08-02T12:29:11;99926.28;;;27.41;34.31
68456;BME280;55437;55.046;38.838;2022-08-02T12:31:45;99919.13;;;27.33;34.03
68456;BME280;55437;55.046;38.838;2022-08-02T12:34:15;99929.81;;;27.32;33.98
68456;BME280;55437;55.046;38.838;2022-08-02T12:36:44;99924.81;;;27.20;34.56
68456;BME280;55437;55.046;38.838;2022-08-02T12:39:44;99925.63;;;27.21;34.67
68456;BME280;55437;55.046;38.838;2022-08-02T12:42:12;99925.78;;;27.19;34.66
68456;BME280;55437;55.046;38.838;2022-08-02T12:44:56;99919.22;;;27.23;34.48
68456;BME280;55437;55.046;38.838;2022-08-02T12:47:24;99921.47;;;27.36;35.04
68456;BME280;55437;55.046;38.838;2022-08-02T12:50:12;99922.81;;;27.40;34.89
68456;BME280;55437;55.046;38.838;2022-08-02T12:52:39;99917.31;;;27.34;34.79
68456;BME280;55437;55.046;38.838;2022-08-02T12:55:33;99922.28;;;27.37;34.66
68456;BME280;55437;55.046;38.838;2022-08-02T12:58:02;99918.03;;;27.44;33.87
68456;BME280;55437;55.046;38.838;2022-08-02T13:00:32;99917.13;;;27.53;34.05
68456;BME280;55437;55.046;38.838;2022-08-02T13:02:59;99912.00;;;27.51;34.61
68456;BME280;55437;55.046;38.838;2022-08-02T13:05:26;99911.13;;;27.69;34.59
68456;BME280;55437;55.046;38.838;2022-08-02T13:07:55;99911.66;;;27.72;35.00
68456;BME280;55437;55.046;38.838;2022-08-02T13:10:22;99911.66;;;27.72;34.30
68456;BME280;55437;55.046;38.838;2022-08-02T13:12:49;99910.97;;;27.70;34.74
68456;BME280;55437;55.046;38.838;2022-08-02T13:15:15;99912.59;;;27.63;34.20
68456;BME280;55437;55.046;38.838;2022-08-02T13:17:41;99908.09;;;27.55;34.35
68456;BME280;55437;55.046;38.838;2022-08-02T13:20:08;99904.81;;;27.36;34.93
68456;BME280;55437;55.046;38.838;2022-08-02T13:22:35;99908.97;;;27.20;35.23
68456;BME280;55437;55.046;38.838;2022-08-02T13:25:04;99902.31;;;27.08;35.74